Time;durP1;ratioP1;P1;durP2;ratioP2;P2;SDS_P1;SDS_P2;PMS_P1;PMS_P2;Temp;Humidity;BMP_temperature;BMP_pressure;BME280_temperature;BME280_humidity;BME280_pressure;Samples;Min_cycle;Max_cycle;Signal;HPM_P1;HPM_P2
2022/12/07 00:01:48;;;;;;;;;62.00;49.00;;;;;2.22;100.00;99494.28;6282394;20;2868164;-58
2022/12/07 00:04:18;;;;;;;;;68.33;49.67;;;;;2.32;100.00;99487.78;6281651;20;2890033;-58
2022/12/07 00:06:52;;;;;;;;;57.50;46.00;;;;;2.34;100.00;99493.91;6312445;20;2862811;-59
2022/12/07 00:09:21;;;;;;;;;62.50;52.00;;;;;2.30;100.00;99488.75;6281260;20;2858619;-59
2022/12/07 00:11:52;;;;;;;;;68.00;55.50;;;;;2.24;100.00;99470.34;6280463;20;2871204;-57
2022/12/07 00:14:21;;;;;;;;;69.67;53.33;;;;;2.05;100.00;99481.53;6279956;20;2877792;-59
2022/12/07 00:16:52;;;;;;;;;69.33;55.33;;;;;1.97;100.00;99479.13;6310406;20;3626307;-58
2022/12/07 00:19:21;;;;;;;;;71.33;53.00;;;;;1.98;100.00;99496.75;6313153;20;3649213;-58
2022/12/07 00:21:51;;;;;;;;;60.00;44.33;;;;;1.81;100.00;99496.34;6313108;20;3627339;-58
2022/12/07 00:24:20;;;;;;;;;63.00;49.50;;;;;1.91;100.00;99494.31;6313870;20;2871203;-58
2022/12/07 00:26:49;;;;;;;;;65.00;49.50;;;;;2.01;100.00;99495.78;6283177;20;2882616;-57
2022/12/07 00:29:22;;;;;;;;;62.33;49.33;;;;;1.85;100.00;99495.38;6275717;20;2876561;-58
2022/12/07 00:31:51;;;;;;;;;63.33;49.00;;;;;1.95;100.00;99490.69;6310572;20;2874310;-57
2022/12/07 00:34:22;;;;;;;;;62.00;48.50;;;;;1.88;100.00;99494.41;6313232;20;2867045;-59
2022/12/07 00:36:51;;;;;;;;;65.50;52.50;;;;;1.82;100.00;99495.47;6281278;20;2857566;-58
2022/12/07 00:39:19;;;;;;;;;61.00;49.00;;;;;1.76;100.00;99492.97;6281501;20;2864896;-59
2022/12/07 00:41:47;;;;;;;;;65.50;50.00;;;;;1.74;100.00;99479.81;6275088;20;2500451;-59
2022/12/07 00:44:17;;;;;;;;;68.67;53.33;;;;;1.80;100.00;99489.34;6280999;20;2875422;-58
2022/12/07 00:46:46;;;;;;;;;68.00;51.50;;;;;1.83;100.00;99491.88;6309127;20;2862793;-59
2022/12/07 00:49:15;;;;;;;;;64.50;52.50;;;;;1.68;100.00;99492.31;6280455;20;2864864;-59
2022/12/07 00:51:43;;;;;;;;;72.50;53.50;;;;;1.71;100.00;99492.22;6279790;20;2876323;-59
2022/12/07 00:54:12;;;;;;;;;63.00;49.50;;;;;1.79;100.00;99484.97;6282436;20;2865915;-58
2022/12/07 00:56:41;;;;;;;;;62.33;48.33;;;;;1.87;100.00;99496.19;6279512;20;2872138;-59
2022/12/07 00:59:14;;;;;;;;;60.00;44.00;;;;;1.94;100.00;99489.78;6311895;20;2862952;-59
2022/12/07 01:01:44;;;;;;;;;63.00;49.67;;;;;2.01;100.00;99494.91;6279901;20;2875678;-58
2022/12/07 01:04:13;;;;;;;;;62.50;48.00;;;;;2.17;100.00;99481.16;6312063;20;2869036;-58
2022/12/07 01:06:41;;;;;;;;;55.50;45.50;;;;;2.06;100.00;99483.28;6278502;20;2868088;-59
2022/12/07 01:09:10;;;;;;;;;62.50;46.00;;;;;2.00;100.00;99483.44;6278294;20;2868115;-56
2022/12/07 01:11:39;;;;;;;;;54.50;44.50;;;;;1.91;100.00;99481.09;6280832;20;2839927;-58
2022/12/07 01:14:09;;;;;;;;;62.00;48.00;;;;;1.96;100.00;99481.81;6279387;20;2866988;-58
2022/12/07 01:16:40;;;;;;;;;56.50;43.00;;;;;1.72;100.00;99478.09;6280305;20;2868168;-58
2022/12/07 01:19:08;;;;;;;;;63.00;48.50;;;;;1.66;100.00;99472.97;6279860;20;2865014;-57
2022/12/07 01:21:39;;;;;;;;;60.00;46.00;;;;;1.71;100.00;99471.06;6278843;20;2854487;-58
2022/12/07 01:24:11;;;;;;;;;55.00;41.50;;;;;1.76;100.00;99469.16;6279241;20;2879487;-58
2022/12/07 01:26:40;;;;;;;;;60.00;46.00;;;;;1.46;100.00;99455.91;6279756;20;2871164;-58
2022/12/07 01:29:09;;;;;;;;;64.00;51.50;;;;;1.53;100.00;99457.47;6315105;20;2868043;-58
2022/12/07 01:31:39;;;;;;;;;66.00;49.00;;;;;1.62;100.00;99458.13;6281410;20;2890183;-57
2022/12/07 01:34:09;;;;;;;;;62.00;48.00;;;;;1.59;100.00;99450.28;6318339;20;2862877;-58
2022/12/07 01:36:38;;;;;;;;;51.00;43.00;;;;;1.60;100.00;99452.00;6281875;20;2854536;-57
2022/12/07 01:39:09;;;;;;;;;59.00;48.50;;;;;1.33;100.00;99454.50;6283016;20;2873197;-58
2022/12/07 01:41:40;;;;;;;;;60.50;44.00;;;;;1.18;100.00;99454.94;6277435;20;2494175;-57
2022/12/07 01:44:32;;;;;;;;;57.33;45.00;;;;;1.13;100.00;99457.69;6284820;20;2853510;-58
2022/12/07 01:47:04;;;;;;;;;62.33;46.67;;;;;1.13;100.00;99459.47;6313710;20;2868134;-59
2022/12/07 01:49:46;;;;;;;;;56.50;44.00;;;;;1.19;100.00;99456.69;6313179;20;2871142;-58
2022/12/07 01:52:31;;;;;;;;;58.00;45.50;;;;;1.30;100.00;99459.88;6282779;20;2853414;-58
2022/12/07 01:55:10;;;;;;;;;64.00;46.00;;;;;1.27;100.00;99455.56;6281574;20;2744080;-58
2022/12/07 01:57:47;;;;;;;;;68.33;47.00;;;;;1.26;100.00;99455.59;6312955;20;2879652;-59
2022/12/07 02:00:17;;;;;;;;;57.50;49.00;;;;;1.16;100.00;99451.44;6311609;20;2846143;-58
2022/12/07 02:03:16;;;;;;;;;66.00;49.33;;;;;1.29;100.00;99455.50;6285000;20;2888955;-58
2022/12/07 02:05:48;;;;;;;;;98.67;73.33;;;;;1.14;100.00;99448.00;6310700;20;3683569;-56
2022/12/07 02:08:18;;;;;;;;;79.00;54.67;;;;;1.35;100.00;99451.84;6313343;20;2896201;-54
2022/12/07 02:10:47;;;;;;;;;64.50;51.00;;;;;1.01;100.00;99465.97;6313868;20;2869087;-57
2022/12/07 02:13:26;;;;;;;;;78.33;60.00;;;;;0.99;100.00;99452.78;6282587;20;3628404;-55
2022/12/07 02:16:44;;;;;;;;;65.00;54.00;;;;;1.03;100.00;99461.50;6313357;20;2852354;-59
2022/12/07 02:20:24;;;;;;;;;79.33;56.67;;;;;0.86;100.00;99465.44;6279638;20;3641076;-58
2022/12/07 02:23:53;;;;;;;;;72.00;58.00;;;;;0.51;100.00;99455.75;6310963;20;2869036;-59
2022/12/07 02:27:03;;;;;;;;;120.00;97.33;;;;;0.59;100.00;99448.50;6312489;20;3688810;-58
2022/12/07 02:30:12;;;;;;;;;72.00;56.00;;;;;0.75;100.00;99443.72;6279735;20;2881520;-60
2022/12/07 02:32:59;;;;;;;;;77.00;55.00;;;;;0.67;100.00;99447.47;6279436;20;2877464;-59
2022/12/07 02:35:42;;;;;;;;;67.00;51.00;;;;;0.80;100.00;99446.25;6280970;20;2869089;-56
2022/12/07 02:38:36;;;;;;;;;63.00;51.00;;;;;0.91;100.00;99445.97;6276997;20;2498218;-58
2022/12/07 02:41:11;;;;;;;;;62.00;46.00;;;;;1.02;100.00;99444.75;6279488;20;2863815;-58
2022/12/07 02:43:55;;;;;;;;;59.50;50.00;;;;;0.95;100.00;99440.56;6281337;20;2857667;-56
2022/12/07 02:46:33;;;;;;;;;55.00;47.00;;;;;1.14;100.00;99445.34;6280869;20;2848239;-56
2022/12/07 02:49:03;;;;;;;;;63.50;48.00;;;;;1.16;100.00;99443.50;6280093;20;2865942;-57
2022/12/07 02:51:34;;;;;;;;;65.00;50.50;;;;;1.21;100.00;99450.44;6282161;20;2873307;-58
2022/12/07 02:54:07;;;;;;;;;68.00;51.00;;;;;1.20;100.00;99453.97;6280240;20;2861835;-57
2022/12/07 02:56:43;;;;;;;;;55.00;40.50;;;;;1.20;100.00;99447.81;6277126;20;2862833;-58
2022/12/07 02:59:32;;;;;;;;;61.00;46.00;;;;;0.95;100.00;99442.31;6278858;20;2870102;-55
2022/12/07 03:02:44;;;;;;;;;65.33;45.33;;;;;1.13;100.00;99440.97;6283999;20;2887881;-57
2022/12/07 03:05:25;;;;;;;;;65.50;49.00;;;;;1.17;100.00;99437.34;6312823;20;2869046;-57
2022/12/07 03:09:00;;;;;;;;;55.50;47.00;;;;;1.27;100.00;99438.81;6276300;20;2847156;-57
2022/12/07 03:11:49;;;;;;;;;69.00;52.00;;;;;1.32;100.00;99434.28;6275354;20;2882640;-54
2022/12/07 03:14:23;;;;;;;;;63.50;50.50;;;;;1.22;100.00;99440.72;6276254;20;2500851;-54
2022/12/07 03:17:05;;;;;;;;;61.50;48.50;;;;;1.21;100.00;99438.97;6272908;20;2500290;-57
2022/12/07 03:19:36;;;;;;;;;71.00;54.00;;;;;1.45;100.00;99438.31;6275635;20;2879452;-56
2022/12/07 03:22:12;;;;;;;;;71.00;54.50;;;;;1.39;100.00;99433.16;6279289;20;2877361;-56
2022/12/07 03:24:54;;;;;;;;;72.50;53.50;;;;;1.61;100.00;99435.22;6282478;20;2881903;-55
2022/12/07 03:27:35;;;;;;;;;67.33;52.00;;;;;1.41;100.00;99431.34;6280305;20;2885813;-58
2022/12/07 03:30:15;;;;;;;;;59.00;48.00;;;;;1.53;100.00;99435.44;6310833;20;2852337;-56
2022/12/07 03:33:01;;;;;;;;;60.00;46.50;;;;;1.59;100.00;99434.41;6282789;20;2859705;-56
2022/12/07 03:35:43;;;;;;;;;70.33;54.00;;;;;1.68;100.00;99434.09;6279701;20;3633739;-58
2022/12/07 03:38:52;;;;;;;;;65.00;49.00;;;;;1.64;100.00;99435.13;6305962;20;2500438;-58
2022/12/07 03:41:32;;;;;;;;;64.50;49.50;;;;;1.60;100.00;99439.63;6276691;20;2870097;-58
2022/12/07 03:44:01;;;;;;;;;67.50;52.00;;;;;1.48;100.00;99427.63;6279815;20;2890082;-58
2022/12/07 03:46:57;;;;;;;;;67.33;53.33;;;;;1.47;100.00;99433.81;6281185;20;3635706;-57
2022/12/07 03:49:55;;;;;;;;;60.50;45.50;;;;;1.62;100.00;99429.00;6309233;20;2487807;-58
2022/12/07 03:52:47;;;;;;;;;65.33;52.33;;;;;1.75;100.00;99431.25;6278701;20;2873222;-58
2022/12/07 03:55:28;;;;;;;;;63.50;50.00;;;;;1.57;100.00;99426.50;6309180;20;2494048;-58
2022/12/07 03:58:05;;;;;;;;;65.50;51.00;;;;;1.63;100.00;99428.09;6277548;20;2877358;-58
2022/12/07 04:00:35;;;;;;;;;63.33;51.67;;;;;1.57;100.00;99420.34;6276664;20;2872254;-58
2022/12/07 04:03:05;;;;;;;;;64.00;50.33;;;;;1.62;100.00;99423.72;6315783;20;2872252;-59
2022/12/07 04:05:36;;;;;;;;;65.33;50.00;;;;;1.76;100.00;99416.22;6311123;20;2882036;-59
2022/12/07 04:08:05;;;;;;;;;61.50;48.00;;;;;1.73;100.00;99426.91;6308902;20;2870254;-59
2022/12/07 04:10:35;;;;;;;;;67.67;52.00;;;;;1.80;100.00;99423.16;6279365;20;2883775;-58
2022/12/07 04:13:04;;;;;;;;;69.00;50.33;;;;;1.97;100.00;99415.59;6306819;20;2888827;-57
2022/12/07 04:15:33;;;;;;;;;68.50;48.50;;;;;1.98;100.00;99419.97;6307283;20;2885711;-59
2022/12/07 04:18:02;;;;;;;;;48.50;40.00;;;;;2.07;100.00;99417.94;6276149;20;2858646;-59
2022/12/07 04:20:31;;;;;;;;;64.67;50.33;;;;;1.98;100.00;99422.59;6278338;20;2883684;-58
2022/12/07 04:23:00;;;;;;;;;65.00;45.00;;;;;2.07;100.00;99426.75;6312682;20;2785750;-58
2022/12/07 04:25:29;;;;;;;;;65.00;50.00;;;;;2.26;100.00;99427.03;6276823;20;2889968;-56
2022/12/07 04:27:58;;;;;;;;;62.00;48.00;;;;;2.10;100.00;99433.72;6310219;20;2867174;-58
2022/12/07 04:30:27;;;;;;;;;69.33;49.33;;;;;2.13;100.00;99441.56;6276857;20;2889031;-58
2022/12/07 04:32:57;;;;;;;;;70.00;51.33;;;;;2.05;100.00;99441.81;6311130;20;3644093;-57
2022/12/07 04:35:26;;;;;;;;;64.67;49.67;;;;;2.04;100.00;99444.50;6310045;20;3635666;-59
2022/12/07 04:37:56;;;;;;;;;67.00;50.00;;;;;2.10;100.00;99441.66;6310340;20;2880493;-58
2022/12/07 04:40:24;;;;;;;;;63.50;53.00;;;;;2.17;100.00;99453.81;6309917;20;2864862;-58
2022/12/07 04:42:53;;;;;;;;;57.00;45.00;;;;;2.14;100.00;99448.63;6281873;20;2867985;-58
2022/12/07 04:45:22;;;;;;;;;68.50;54.00;;;;;2.14;100.00;99438.03;6278115;20;2874279;-57
2022/12/07 04:47:51;;;;;;;;;76.67;57.00;;;;;2.20;100.00;99445.75;6277058;20;3653405;-56
2022/12/07 04:50:20;;;;;;;;;62.50;48.50;;;;;2.25;100.00;99450.94;6302584;20;2852548;-59
2022/12/07 04:52:50;;;;;;;;;74.00;56.33;;;;;2.13;100.00;99457.47;6281805;20;2897477;-58
2022/12/07 04:55:19;;;;;;;;;71.00;55.00;;;;;2.09;100.00;99454.03;6303617;20;3637909;-58
2022/12/07 04:57:49;;;;;;;;;74.00;57.00;;;;;2.09;100.00;99451.41;6311734;20;2885856;-57
2022/12/07 05:00:19;;;;;;;;;75.00;55.33;;;;;1.98;100.00;99454.38;6310737;20;3647273;-59
2022/12/07 05:02:48;;;;;;;;;72.67;55.33;;;;;2.07;100.00;99447.06;6314313;20;3631502;-54
2022/12/07 05:05:18;;;;;;;;;79.00;58.67;;;;;2.05;100.00;99454.19;6315711;20;3631539;-57
2022/12/07 05:07:46;;;;;;;;;78.00;56.50;;;;;2.13;100.00;99455.69;6315920;20;2898193;-58
2022/12/07 05:10:17;;;;;;;;;72.00;57.33;;;;;2.07;100.00;99457.66;6283671;20;2875414;-58
2022/12/07 05:12:46;;;;;;;;;63.50;51.00;;;;;2.06;100.00;99453.28;6315051;20;2862769;-56
2022/12/07 05:15:16;;;;;;;;;73.67;55.33;;;;;2.13;100.00;99452.16;6287819;20;3649252;-57
2022/12/07 05:17:45;;;;;;;;;71.00;55.00;;;;;2.22;100.00;99457.19;6314933;20;2891981;-58
2022/12/07 05:20:15;;;;;;;;;71.67;56.33;;;;;2.25;100.00;99457.09;6315520;20;2892027;-56
2022/12/07 05:22:44;;;;;;;;;74.33;56.00;;;;;2.15;100.00;99456.50;6317254;20;3643089;-58
2022/12/07 05:25:14;;;;;;;;;75.67;55.33;;;;;2.29;100.00;99453.44;6315630;20;3645087;-58
2022/12/07 05:27:44;;;;;;;;;72.67;52.00;;;;;2.32;100.00;99458.63;6314291;20;2876392;-57
2022/12/07 05:30:13;;;;;;;;;70.00;53.67;;;;;2.16;100.00;99458.25;6314097;20;3631585;-57
2022/12/07 05:32:43;;;;;;;;;72.00;54.00;;;;;2.21;100.00;99455.44;6315262;20;3639982;-58
2022/12/07 05:35:12;;;;;;;;;69.67;52.00;;;;;2.38;100.00;99455.78;6316292;20;3641434;-58
2022/12/07 05:37:42;;;;;;;;;67.67;51.33;;;;;2.19;100.00;99455.50;6313490;20;2886861;-58
2022/12/07 05:40:14;;;;;;;;;73.00;51.67;;;;;2.40;100.00;99453.97;6307982;20;3639885;-58
2022/12/07 05:42:43;;;;;;;;;65.50;52.00;;;;;2.24;100.00;99455.38;6313183;20;2876337;-58
2022/12/07 05:45:12;;;;;;;;;75.33;55.00;;;;;2.53;100.00;99456.22;6286287;20;3652356;-58
2022/12/07 05:47:42;;;;;;;;;73.67;54.00;;;;;2.44;100.00;99457.34;6313856;20;2890043;-58
2022/12/07 05:50:11;;;;;;;;;66.00;52.00;;;;;2.45;100.00;99448.50;6314756;20;3633744;-57
2022/12/07 05:52:41;;;;;;;;;69.00;51.33;;;;;2.42;100.00;99448.59;6315168;20;3651333;-59
2022/12/07 05:55:10;;;;;;;;;72.67;52.67;;;;;2.44;100.00;99457.34;6315991;20;3646655;-52
2022/12/07 05:57:39;;;;;;;;;61.50;50.50;;;;;2.46;100.00;99455.53;6314107;20;2877385;-55
2022/12/07 06:00:10;;;;;;;;;73.33;55.67;;;;;2.60;100.00;99448.00;6279372;20;3643079;-57
2022/12/07 06:02:39;;;;;;;;;65.67;51.67;;;;;2.52;100.00;99459.75;6314020;20;2861779;-58
2022/12/07 06:05:09;;;;;;;;;65.00;50.33;;;;;2.54;100.00;99447.34;6312763;20;3624227;-57
2022/12/07 06:07:38;;;;;;;;;67.67;51.67;;;;;2.62;100.00;99455.91;6312193;20;2873267;-59
2022/12/07 06:10:08;;;;;;;;;61.50;46.50;;;;;2.61;100.00;99462.13;6313006;20;2877481;-57
2022/12/07 06:12:39;;;;;;;;;70.33;50.00;;;;;2.46;100.00;99467.91;6288084;20;3655470;-59
2022/12/07 06:15:10;;;;;;;;;64.33;51.67;;;;;2.37;100.00;99462.00;6316909;20;2867033;-59
2022/12/07 06:17:40;;;;;;;;;63.33;49.33;;;;;2.52;100.00;99459.75;6317409;20;3620113;-59
2022/12/07 06:20:10;;;;;;;;;64.33;49.67;;;;;2.52;100.00;99457.13;6314052;20;3625368;-59
2022/12/07 06:22:38;;;;;;;;;62.50;50.00;;;;;2.52;100.00;99455.31;6313583;20;2871122;-59
2022/12/07 06:25:09;;;;;;;;;61.00;50.33;;;;;2.19;100.00;99452.84;6281863;20;2875289;-59
2022/12/07 06:27:39;;;;;;;;;72.33;54.00;;;;;2.29;100.00;99439.31;6314952;20;3633595;-60
2022/12/07 06:30:09;;;;;;;;;71.33;52.67;;;;;2.42;100.00;99444.19;6315251;20;3650260;-58
2022/12/07 06:32:38;;;;;;;;;72.33;54.00;;;;;2.56;100.00;99448.16;6315422;20;2883312;-58
2022/12/07 06:35:08;;;;;;;;;68.67;49.33;;;;;2.65;100.00;99447.84;6314913;20;3663858;-59
2022/12/07 06:37:37;;;;;;;;;61.00;45.00;;;;;2.70;100.00;99443.25;6314524;20;2869138;-59
2022/12/07 06:40:07;;;;;;;;;65.67;51.67;;;;;2.73;100.00;99442.28;6281785;20;2869192;-58
2022/12/07 06:42:36;;;;;;;;;61.00;47.00;;;;;2.75;100.00;99446.63;6314024;20;2889979;-59
2022/12/07 06:45:05;;;;;;;;;61.00;48.00;;;;;2.67;100.00;99447.81;6277819;20;2500364;-59
2022/12/07 06:47:33;;;;;;;;;53.50;43.50;;;;;2.65;100.00;99447.84;6281026;20;2499262;-59
2022/12/07 06:50:09;;;;;;;;;58.50;45.00;;;;;2.67;100.00;99448.66;6282310;20;2864984;-59
2022/12/07 06:52:38;;;;;;;;;66.00;53.00;;;;;2.77;100.00;99449.22;6281780;20;2865913;-59
2022/12/07 06:55:08;;;;;;;;;66.00;53.00;;;;;2.79;100.00;99447.38;6280843;20;2886808;-59
2022/12/07 06:57:37;;;;;;;;;67.00;48.50;;;;;2.80;100.00;99442.03;6314918;20;2867008;-57
2022/12/07 07:00:07;;;;;;;;;68.00;50.00;;;;;3.00;100.00;99445.78;6280437;20;2878434;-57
2022/12/07 07:02:37;;;;;;;;;72.33;54.33;;;;;2.89;100.00;99448.81;6316228;20;3637770;-59
2022/12/07 07:05:07;;;;;;;;;60.67;47.67;;;;;2.83;100.00;99444.56;6313471;20;3646148;-59
2022/12/07 07:07:36;;;;;;;;;62.33;49.00;;;;;2.94;100.00;99441.56;6315274;20;2883711;-60
2022/12/07 07:10:25;;;;;;;;;58.00;43.50;;;;;2.92;100.00;99445.19;6312757;20;2861755;-59
2022/12/07 07:12:54;;;;;;;;;50.00;41.00;;;;;2.98;100.00;99445.00;6283681;20;2871133;-59
2022/12/07 07:15:25;;;;;;;;;53.50;43.50;;;;;2.81;100.00;99443.75;6284529;20;2854436;-59
2022/12/07 07:17:55;;;;;;;;;62.00;49.00;;;;;2.79;100.00;99447.38;6285070;20;2877362;-58
2022/12/07 07:20:24;;;;;;;;;62.00;48.67;;;;;3.06;100.00;99441.13;6315075;20;2887892;-59
2022/12/07 07:22:57;;;;;;;;;55.50;42.00;;;;;2.87;100.00;99437.41;6315205;20;2863853;-59
2022/12/07 07:25:25;;;;;;;;;58.00;47.00;;;;;2.76;100.00;99443.03;6285204;20;2862782;-60
2022/12/07 07:27:55;;;;;;;;;62.00;50.33;;;;;2.81;100.00;99445.53;6284310;20;2873377;-58
2022/12/07 07:30:25;;;;;;;;;60.67;48.33;;;;;2.89;100.00;99453.25;6311919;20;2878455;-58
2022/12/07 07:33:01;;;;;;;;;67.33;50.67;;;;;3.02;100.00;99443.94;6314444;20;3639863;-59
2022/12/07 07:35:34;;;;;;;;;64.00;50.33;;;;;2.91;100.00;99457.56;6312353;20;2867090;-59
2022/12/07 07:38:03;;;;;;;;;60.00;46.50;;;;;3.04;100.00;99458.03;6314703;20;2872327;-59
2022/12/07 07:40:32;;;;;;;;;64.67;50.67;;;;;2.84;100.00;99456.03;6283217;20;3629580;-59
2022/12/07 07:43:01;;;;;;;;;64.00;49.00;;;;;2.82;100.00;99452.59;6314788;20;2827488;-59
2022/12/07 07:45:30;;;;;;;;;60.00;48.00;;;;;2.85;100.00;99448.06;6283388;20;2872176;-59
2022/12/07 07:47:59;;;;;;;;;71.33;53.33;;;;;2.79;100.00;99456.22;6282437;20;3638791;-59
2022/12/07 07:50:29;;;;;;;;;72.33;53.33;;;;;2.91;100.00;99460.22;6311994;20;3646285;-59
2022/12/07 07:52:58;;;;;;;;;71.00;55.00;;;;;3.11;100.00;99459.56;6314541;20;3635664;-59
2022/12/07 07:55:28;;;;;;;;;69.67;55.00;;;;;3.13;100.00;99464.78;6315484;20;2884737;-59
2022/12/07 07:57:58;;;;;;;;;69.00;52.67;;;;;3.28;100.00;99462.47;6315462;20;2872254;-59
2022/12/07 08:00:27;;;;;;;;;63.00;50.00;;;;;3.40;100.00;99463.81;6313732;20;2877437;-59
2022/12/07 08:02:57;;;;;;;;;75.00;57.00;;;;;3.40;100.00;99465.63;6311875;20;3628566;-56
2022/12/07 08:05:26;;;;;;;;;58.50;47.00;;;;;3.52;100.00;99467.81;6313288;20;2862835;-58
2022/12/07 08:07:57;;;;;;;;;63.33;50.67;;;;;3.67;100.00;99469.06;6284202;20;2870101;-59
2022/12/07 08:10:26;;;;;;;;;63.00;49.00;;;;;3.41;100.00;99470.00;6310229;20;2879443;-59
2022/12/07 08:13:10;;;;;;;;;68.33;50.33;;;;;3.74;100.00;99470.56;6315094;20;2873200;-59
2022/12/07 08:15:45;;;;;;;;;68.33;50.33;;;;;3.76;100.00;99470.50;6315514;20;2876378;-59
2022/12/07 08:18:15;;;;;;;;;67.33;50.67;;;;;3.68;100.00;99471.63;6315404;20;3634674;-58
2022/12/07 08:20:44;;;;;;;;;53.50;42.50;;;;;3.88;100.00;99472.69;6314311;20;2852570;-59
2022/12/07 08:23:13;;;;;;;;;57.00;44.50;;;;;3.75;100.00;99472.28;6284102;20;2858662;-58
2022/12/07 08:25:41;;;;;;;;;63.00;47.50;;;;;3.73;100.00;99474.13;6281575;20;2876398;-58
2022/12/07 08:28:10;;;;;;;;;53.50;42.50;;;;;3.99;100.00;99466.97;6283817;20;2858629;-57
2022/12/07 08:30:39;;;;;;;;;58.50;46.50;;;;;3.91;100.00;99477.88;6277707;20;2871556;-58
2022/12/07 08:33:10;;;;;;;;;58.50;46.00;;;;;3.85;100.00;99472.81;6283555;20;2864860;-57
2022/12/07 08:35:39;;;;;;;;;62.00;45.67;;;;;3.71;100.00;99479.50;6280001;20;2874315;-59
2022/12/07 08:38:08;;;;;;;;;57.00;45.50;;;;;3.94;100.00;99483.94;6309409;20;2851796;-59
2022/12/07 08:40:36;;;;;;;;;57.50;45.00;;;;;3.98;100.00;99471.44;6282319;20;2857575;-58
2022/12/07 08:43:06;;;;;;;;;58.67;41.00;;;;;4.10;100.00;99478.03;6280720;20;3633608;-60
2022/12/07 08:45:35;;;;;;;;;54.67;42.00;;;;;4.20;100.00;99475.91;6313868;20;2874249;-58
2022/12/07 08:48:12;;;;;;;;;56.50;45.00;;;;;4.27;100.00;99478.28;6311565;20;2855761;-58
2022/12/07 08:50:41;;;;;;;;;57.50;44.00;;;;;4.39;100.00;99484.88;6277962;20;2862804;-59
2022/12/07 08:53:17;;;;;;;;;63.00;50.00;;;;;4.40;100.00;99481.31;6283130;20;2865318;-59
2022/12/07 08:55:47;;;;;;;;;64.00;49.00;;;;;4.71;100.00;99480.91;6279611;20;3636708;-58
2022/12/07 08:58:17;;;;;;;;;68.33;51.67;;;;;4.72;100.00;99487.13;6307397;20;3648343;-58
2022/12/07 09:00:46;;;;;;;;;68.67;54.00;;;;;4.71;100.00;99480.06;6310457;20;3635749;-59
2022/12/07 09:03:15;;;;;;;;;61.00;49.00;;;;;4.58;100.00;99485.91;6310817;20;2866973;-58
2022/12/07 09:05:45;;;;;;;;;70.33;52.33;;;;;4.67;100.00;99491.75;6280025;20;3643000;-57
2022/12/07 09:08:15;;;;;;;;;60.33;48.33;;;;;4.74;100.00;99487.91;6309718;20;2858614;-59
2022/12/07 09:10:45;;;;;;;;;59.00;46.67;;;;;5.10;100.00;99482.00;6308194;20;2873270;-58
2022/12/07 09:13:14;;;;;;;;;59.33;47.00;;;;;5.05;100.00;99480.41;6313259;20;2857601;-59
2022/12/07 09:15:44;;;;;;;;;62.33;49.00;;;;;4.82;100.00;99472.53;6312915;20;2885851;-58
2022/12/07 09:18:14;;;;;;;;;61.67;48.00;;;;;4.72;100.00;99484.47;6313259;20;3627454;-58
2022/12/07 09:20:43;;;;;;;;;62.67;46.67;;;;;5.13;100.00;99481.84;6311056;20;3626340;-58
2022/12/07 09:23:13;;;;;;;;;67.67;46.67;;;;;5.14;100.00;99478.28;6312319;20;3631510;-57
2022/12/07 09:25:42;;;;;;;;;58.67;46.00;;;;;5.02;100.00;99485.84;6310067;20;3619030;-58
2022/12/07 09:28:12;;;;;;;;;65.00;49.00;;;;;5.03;100.00;99474.28;6310671;20;3627346;-57
2022/12/07 09:30:49;;;;;;;;;66.33;49.33;;;;;5.38;100.00;99469.22;6306132;20;3650290;-58
2022/12/07 09:33:39;;;;;;;;;65.00;47.00;;;;;5.35;100.00;99469.38;6311493;20;3642992;-58
2022/12/07 09:36:09;;;;;;;;;63.67;47.67;;;;;5.42;100.00;99470.81;6309815;20;2876415;-58
2022/12/07 09:38:39;;;;;;;;;64.33;50.33;;;;;5.17;100.00;99473.69;6309268;20;3632586;-58
2022/12/07 09:41:08;;;;;;;;;59.67;47.33;;;;;5.15;100.00;99469.34;6311874;20;2875309;-58
2022/12/07 09:43:40;;;;;;;;;57.00;45.67;;;;;5.25;100.00;99465.38;6311674;20;2869023;-58
2022/12/07 09:46:17;;;;;;;;;64.00;45.00;;;;;5.06;100.00;99465.31;6309573;20;2867185;-58
2022/12/07 09:48:49;;;;;;;;;60.00;46.33;;;;;5.12;100.00;99469.50;6312780;20;2865903;-58
2022/12/07 09:51:23;;;;;;;;;57.00;46.50;;;;;4.68;100.00;99464.22;6309719;20;2864685;-57
2022/12/07 09:53:58;;;;;;;;;60.67;48.00;;;;;5.01;100.00;99460.16;6283099;20;3634647;-58
2022/12/07 09:56:30;;;;;;;;;65.33;51.33;;;;;5.07;100.00;99462.56;6313196;20;2883912;-54
2022/12/07 09:59:02;;;;;;;;;65.00;48.33;;;;;5.02;100.00;99451.25;6313744;20;3632558;-58
2022/12/07 10:01:33;;;;;;;;;64.00;50.50;;;;;4.83;100.00;99461.81;6315841;20;2869146;-58
2022/12/07 10:04:22;;;;;;;;;65.33;51.67;;;;;5.60;100.00;99460.28;6286955;20;2874568;-57
2022/12/07 10:06:51;;;;;;;;;69.00;53.00;;;;;5.36;100.00;99456.91;6315808;20;2772140;-56
2022/12/07 10:09:22;;;;;;;;;64.67;50.33;;;;;5.07;100.00;99456.38;6285106;20;2872636;-57
2022/12/07 10:12:11;;;;;;;;;66.00;50.00;;;;;5.35;100.00;99449.88;6312407;20;3637811;-57
2022/12/07 10:15:02;;;;;;;;;67.67;53.00;;;;;4.93;100.00;99453.44;6314988;20;3627364;-58
2022/12/07 10:17:52;;;;;;;;;66.67;50.00;;;;;5.37;100.00;99448.88;6319048;20;3627371;-58
2022/12/07 10:20:26;;;;;;;;;68.67;55.00;;;;;5.34;100.00;99443.66;6312133;20;3607603;-58
2022/12/07 10:23:00;;;;;;;;;68.67;55.00;;;;;5.19;100.00;99450.53;6312747;20;2877525;-58
2022/12/07 10:25:38;;;;;;;;;73.67;54.67;;;;;5.47;100.00;99442.19;6316001;20;3646806;-58
2022/12/07 10:28:18;;;;;;;;;75.00;55.67;;;;;5.45;100.00;99436.09;6315358;20;3643043;-57
2022/12/07 10:31:19;;;;;;;;;62.00;51.67;;;;;5.43;100.00;99427.28;6312784;20;3594101;-58
2022/12/07 10:33:57;;;;;;;;;61.67;47.00;;;;;5.46;100.00;99429.81;6313641;20;3636778;-58
2022/12/07 10:36:38;;;;;;;;;62.67;52.67;;;;;5.62;100.00;99437.13;6315497;20;2871265;-58
2022/12/07 10:39:22;;;;;;;;;71.67;55.33;;;;;5.54;100.00;99432.13;6311642;20;3632685;-58
2022/12/07 10:42:00;;;;;;;;;74.00;58.00;;;;;5.42;100.00;99432.69;6313347;20;3626386;-59
2022/12/07 10:44:34;;;;;;;;;77.00;57.67;;;;;5.03;100.00;99423.72;6314268;20;3647149;-58
2022/12/07 10:47:33;;;;;;;;;75.00;57.67;;;;;5.67;100.00;99422.66;6313239;20;3631525;-58
2022/12/07 10:51:01;;;;;;;;;77.00;59.00;;;;;5.77;100.00;99424.91;6310156;20;3657630;-56
2022/12/07 10:53:39;;;;;;;;;67.67;54.00;;;;;5.55;100.00;99414.34;6316220;20;2860773;-58
2022/12/07 10:56:36;;;;;;;;;70.00;50.67;;;;;5.51;100.00;99426.94;6316904;20;3645101;-58
2022/12/07 10:59:14;;;;;;;;;77.67;58.67;;;;;5.77;100.00;99431.09;6313772;20;3624245;-58
2022/12/07 11:02:23;;;;;;;;;71.67;51.33;;;;;5.28;100.00;99430.63;6314791;20;3648210;-58
2022/12/07 11:05:29;;;;;;;;;71.00;54.67;;;;;5.63;100.00;99422.84;6310278;20;3626387;-58
2022/12/07 11:08:29;;;;;;;;;66.00;50.33;;;;;5.33;100.00;99425.09;6316782;20;3615885;-59
2022/12/07 11:11:17;;;;;;;;;63.33;50.00;;;;;5.38;100.00;99418.66;6312868;20;2866001;-58
2022/12/07 11:14:29;;;;;;;;;64.67;50.67;;;;;5.28;100.00;99418.19;6313839;20;2872459;-58
2022/12/07 11:18:00;;;;;;;;;51.67;43.00;;;;;5.48;100.00;99417.31;6313225;20;2850302;-57
2022/12/07 11:21:31;;;;;;;;;67.00;51.00;;;;;5.49;100.00;99411.03;6311519;20;3631553;-56
2022/12/07 11:24:24;;;;;;;;;67.33;50.67;;;;;6.04;100.00;99418.31;6313393;20;2872822;-58
2022/12/07 11:28:07;;;;;;;;;67.33;51.33;;;;;6.28;100.00;99416.25;6311723;20;3639859;-58
2022/12/07 11:31:18;;;;;;;;;59.67;43.00;;;;;6.37;100.00;99410.50;6315284;20;3612747;-57
2022/12/07 11:34:39;;;;;;;;;59.67;47.00;;;;;6.28;100.00;99413.59;6313848;20;2866009;-58
2022/12/07 11:37:19;;;;;;;;;56.67;45.33;;;;;5.99;100.00;99408.81;6312758;20;2865483;-58
2022/12/07 11:40:30;;;;;;;;;59.67;47.67;;;;;6.25;100.00;99416.41;6308999;20;2869233;-58
2022/12/07 11:43:25;;;;;;;;;51.67;41.33;;;;;6.69;100.00;99404.47;6313716;20;3604524;-56